createdAt,value
2019-03-12T00:01:23.348Z,87.04
2019-03-12T00:03:52.655Z,87.27
2019-03-12T00:06:21.921Z,87.19
2019-03-12T00:08:51.244Z,87.37
2019-03-12T00:11:20.490Z,87.37
2019-03-12T00:13:49.747Z,87.35
2019-03-12T00:16:18.975Z,87.42
2019-03-12T00:18:48.329Z,87.29
2019-03-12T00:21:17.632Z,87.47
2019-03-12T00:23:46.941Z,87.42
2019-03-12T00:26:16.238Z,87.37
2019-03-12T00:28:45.471Z,87.24
2019-03-12T00:31:14.753Z,87.32
2019-03-12T00:33:44.025Z,87.47
2019-03-12T00:36:13.246Z,87.44
2019-03-12T00:38:42.535Z,87.51
2019-03-12T00:41:11.821Z,87.56
2019-03-12T00:43:41.151Z,87.34
2019-03-12T00:46:10.531Z,87.51
2019-03-12T00:48:39.821Z,87.51
2019-03-12T00:51:09.147Z,87.69
2019-03-12T00:53:38.387Z,87.59
2019-03-12T00:56:07.639Z,87.68
2019-03-12T00:58:36.915Z,87.64
2019-03-12T01:01:06.169Z,87.56
2019-03-12T01:03:35.423Z,87.84
2019-03-12T01:06:04.843Z,87.99
2019-03-12T01:08:34.234Z,88.14
2019-03-12T01:11:03.548Z,88.32
2019-03-12T01:13:32.777Z,88.42
2019-03-12T01:16:02.051Z,88.39
2019-03-12T01:18:31.333Z,88.60
2019-03-12T01:21:00.630Z,88.74
2019-03-12T01:23:29.939Z,88.74
2019-03-12T01:25:59.339Z,88.80
2019-03-12T01:28:28.593Z,88.85
2019-03-12T01:30:57.943Z,88.83
2019-03-12T01:33:27.219Z,88.51
2019-03-12T01:35:56.538Z,88.69
2019-03-12T01:38:25.818Z,88.63
2019-03-12T01:40:55.053Z,88.50
2019-03-12T01:43:24.457Z,88.45
2019-03-12T01:45:53.727Z,88.54
2019-03-12T01:48:23.018Z,88.24
2019-03-12T01:50:52.249Z,88.08
2019-03-12T01:53:21.563Z,88.24
2019-03-12T01:55:50.799Z,87.94
2019-03-12T01:58:20.143Z,87.87
2019-03-12T02:00:49.412Z,87.94
2019-03-12T02:03:18.703Z,87.70
2019-03-12T02:05:47.971Z,87.76
2019-03-12T02:08:17.205Z,87.72
2019-03-12T02:10:46.487Z,87.62
2019-03-12T02:13:15.753Z,87.47
2019-03-12T02:15:45.011Z,87.64
2019-03-12T02:18:14.241Z,87.70
2019-03-12T02:20:43.507Z,87.70
2019-03-12T02:23:12.783Z,87.64
2019-03-12T02:25:41.987Z,87.41
2019-03-12T02:28:11.254Z,87.62
2019-03-12T02:30:40.531Z,87.45
2019-03-12T02:33:09.791Z,87.41
2019-03-12T02:35:39.073Z,87.47
2019-03-12T02:38:08.369Z,87.41
2019-03-12T02:40:37.687Z,87.52
2019-03-12T02:43:06.955Z,87.59
2019-03-12T02:45:36.232Z,87.50
2019-03-12T02:48:05.528Z,87.63
2019-03-12T02:50:34.842Z,87.62
2019-03-12T02:53:04.108Z,87.45
2019-03-12T02:55:33.404Z,87.54
2019-03-12T02:58:02.697Z,87.33
2019-03-12T03:00:31.970Z,87.46
2019-03-12T03:03:01.230Z,87.25
2019-03-12T03:05:30.472Z,86.76
2019-03-12T03:08:05.541Z,86.99
2019-03-12T03:10:34.859Z,86.97
2019-03-12T03:13:04.122Z,86.74
2019-03-12T03:15:37.448Z,86.62
2019-03-12T03:18:06.732Z,86.66
2019-03-12T03:20:35.925Z,86.79
2019-03-12T03:23:05.208Z,86.67
2019-03-12T03:25:34.440Z,86.94
2019-03-12T03:28:03.740Z,86.95
2019-03-12T03:30:33.005Z,86.93
2019-03-12T03:33:02.292Z,86.95
2019-03-12T03:35:31.691Z,86.92
2019-03-12T03:38:00.907Z,86.99
2019-03-12T03:40:30.165Z,86.74
2019-03-12T03:42:59.439Z,86.77
2019-03-12T03:45:28.697Z,86.87
2019-03-12T03:47:57.952Z,86.88
2019-03-12T03:50:27.218Z,87.07
2019-03-12T03:52:56.513Z,87.25
2019-03-12T03:55:25.802Z,87.38
2019-03-12T03:57:55.091Z,87.52
2019-03-12T04:00:24.501Z,87.75
2019-03-12T04:02:53.765Z,87.66
2019-03-12T04:05:22.980Z,87.89
2019-03-12T04:07:52.249Z,87.76
2019-03-12T04:10:21.491Z,87.70
2019-03-12T04:12:50.843Z,87.70
2019-03-12T04:15:20.053Z,87.82
2019-03-12T04:17:49.323Z,87.93
2019-03-12T04:20:18.617Z,87.94
2019-03-12T04:22:47.796Z,88.04
2019-03-12T04:25:17.092Z,88.08
2019-03-12T04:27:46.381Z,88.37
2019-03-12T04:30:15.647Z,88.29
2019-03-12T04:32:44.872Z,88.34
2019-03-12T04:35:15.807Z,88.41
2019-03-12T04:37:45.117Z,88.62
2019-03-12T04:40:14.446Z,88.48
2019-03-12T04:42:43.708Z,88.56
2019-03-12T04:45:14.369Z,88.70
2019-03-12T04:47:43.650Z,88.76
2019-03-12T04:50:13.057Z,88.93
2019-03-12T04:52:42.339Z,88.95
2019-03-12T04:55:11.835Z,89.24
2019-03-12T04:57:41.070Z,89.39
2019-03-12T05:00:12.652Z,89.42
2019-03-12T05:02:41.945Z,89.36
2019-03-12T05:05:11.215Z,89.48
2019-03-12T05:07:40.739Z,89.25
2019-03-12T05:10:10.920Z,89.23
2019-03-12T05:12:40.207Z,89.32
2019-03-12T05:15:11.336Z,89.19
2019-03-12T05:17:40.804Z,89.58
2019-03-12T05:20:11.981Z,89.53
2019-03-12T05:22:41.258Z,89.59
2019-03-12T05:25:11.187Z,89.43
2019-03-12T05:27:40.421Z,89.42
2019-03-12T05:30:12.553Z,89.43
2019-03-12T05:32:41.859Z,89.39
2019-03-12T05:35:11.144Z,89.36
2019-03-12T05:37:40.422Z,89.24
2019-03-12T05:40:10.658Z,89.11
2019-03-12T05:42:39.935Z,88.98
2019-03-12T05:45:09.465Z,88.76
2019-03-12T05:47:38.751Z,88.54
2019-03-12T05:50:08.854Z,88.43
2019-03-12T05:52:38.136Z,88.42
2019-03-12T05:55:07.586Z,88.36
2019-03-12T05:57:36.786Z,88.32
2019-03-12T06:00:06.323Z,87.97
2019-03-12T06:02:35.649Z,87.80
2019-03-12T06:05:05.409Z,87.84
2019-03-12T06:07:34.769Z,87.72
2019-03-12T06:10:04.247Z,87.63
2019-03-12T06:12:33.578Z,87.60
2019-03-12T06:15:02.891Z,87.33
2019-03-12T06:17:32.256Z,87.03
2019-03-12T06:20:01.540Z,86.81
2019-03-12T06:22:30.943Z,86.58
2019-03-12T06:25:00.395Z,86.38
2019-03-12T06:27:29.453Z,86.08
2019-03-12T06:29:58.676Z,85.63
2019-03-12T06:32:39.980Z,85.39
2019-03-12T06:35:16.082Z,85.15
2019-03-12T06:37:50.547Z,84.82
2019-03-12T06:40:41.560Z,84.50
2019-03-12T06:43:32.426Z,83.98
2019-03-12T06:46:08.967Z,83.46
2019-03-12T06:48:54.469Z,82.17
2019-03-12T06:51:29.991Z,82.33
2019-03-12T06:54:18.345Z,82.60
2019-03-12T06:57:24.711Z,83.00
2019-03-12T07:00:15.720Z,83.32
2019-03-12T07:03:09.843Z,83.37
2019-03-12T07:06:04.007Z,83.33
2019-03-12T07:08:58.293Z,83.40
2019-03-12T07:11:40.385Z,82.90
2019-03-12T07:14:25.169Z,82.57
2019-03-12T07:17:22.661Z,82.68
2019-03-12T07:20:19.965Z,82.04
2019-03-12T07:23:04.816Z,81.96
2019-03-12T07:25:46.132Z,81.68
2019-03-12T07:28:50.576Z,81.20
2019-03-12T07:31:33.437Z,80.72
2019-03-12T07:34:18.445Z,80.13
2019-03-12T07:37:14.993Z,80.36
2019-03-12T07:39:56.707Z,79.91
2019-03-12T07:42:35.458Z,79.97
2019-03-12T07:45:26.007Z,79.66
2019-03-12T07:48:23.607Z,79.25
2019-03-12T07:51:11.958Z,78.94
2019-03-12T07:54:03.422Z,78.75
2019-03-12T07:56:46.317Z,78.56
2019-03-12T07:59:33.575Z,77.95
2019-03-12T08:02:20.789Z,77.83
2019-03-12T08:05:07.943Z,76.96
2019-03-12T08:07:52.617Z,76.82
2019-03-12T08:10:43.721Z,75.11
2019-03-12T08:13:32.039Z,75.39
2019-03-12T08:16:15.926Z,74.80
2019-03-12T08:19:07.001Z,74.81
2019-03-12T08:21:57.746Z,74.38
2019-03-12T08:24:37.791Z,74.27
2019-03-12T08:27:35.191Z,73.74
2019-03-12T08:30:26.787Z,74.34
2019-03-12T08:33:12.679Z,73.41
2019-03-12T08:35:48.601Z,73.56
2019-03-12T08:38:39.949Z,72.57
2019-03-12T08:41:14.571Z,72.33
2019-03-12T08:44:01.688Z,72.22
2019-03-12T08:46:39.389Z,71.74
2019-03-12T08:49:30.650Z,71.94
2019-03-12T08:52:22.112Z,71.56
2019-03-12T08:55:19.301Z,71.01
2019-03-12T08:57:54.303Z,70.29
2019-03-12T09:00:45.365Z,69.62
2019-03-12T09:03:32.371Z,70.22
2019-03-12T09:06:20.727Z,69.97
2019-03-12T09:09:11.595Z,68.79
2019-03-12T09:12:15.123Z,68.08
2019-03-12T09:15:15.039Z,67.72
2019-03-12T09:18:09.283Z,66.36
2019-03-12T09:20:57.645Z,65.45
2019-03-12T09:23:42.774Z,64.61
2019-03-12T09:26:17.141Z,64.16
2019-03-12T09:28:53.039Z,63.49
2019-03-12T09:31:41.407Z,63.84
2019-03-12T09:34:28.694Z,63.10
2019-03-12T09:37:07.661Z,63.46
2019-03-12T09:39:45.987Z,64.22
2019-03-12T09:42:22.793Z,64.08
2019-03-12T09:44:59.805Z,64.42
2019-03-12T09:47:38.965Z,63.82
2019-03-12T09:50:25.077Z,64.39
2019-03-12T09:53:28.766Z,63.24
2019-03-12T09:56:08.387Z,62.84
2019-03-12T09:59:02.613Z,62.65
2019-03-12T10:01:39.280Z,61.92
2019-03-12T10:04:26.644Z,62.24
2019-03-12T10:07:13.243Z,62.58
2019-03-12T10:10:07.265Z,60.96
2019-03-12T10:12:54.549Z,61.10
2019-03-12T10:15:35.048Z,60.80
2019-03-12T10:18:24.749Z,61.19
2019-03-12T10:21:09.283Z,62.42
2019-03-12T10:24:03.816Z,62.63
2019-03-12T10:26:53.494Z,62.27
2019-03-12T10:29:40.651Z,62.50
2019-03-12T10:32:22.297Z,62.02
2019-03-12T10:35:13.291Z,62.36
2019-03-12T10:38:04.424Z,61.99
2019-03-12T10:41:05.109Z,61.71
2019-03-12T10:43:46.133Z,61.33
2019-03-12T10:46:35.989Z,61.51
2019-03-12T10:49:05.307Z,61.53
2019-03-12T10:51:34.516Z,60.51
2019-03-12T10:54:03.815Z,60.45
2019-03-12T10:56:33.061Z,60.76
2019-03-12T10:59:02.317Z,60.86
2019-03-12T11:01:31.589Z,61.77
2019-03-12T11:04:00.820Z,61.00
2019-03-12T11:06:30.043Z,60.26
2019-03-12T11:08:59.419Z,59.19
2019-03-12T11:11:28.700Z,58.10
2019-03-12T11:13:57.989Z,57.75
2019-03-12T11:16:27.290Z,58.44
2019-03-12T11:18:56.523Z,56.81
2019-03-12T11:21:25.796Z,56.81
2019-03-12T11:23:55.119Z,56.27
2019-03-12T11:26:24.345Z,56.10
2019-03-12T11:28:53.620Z,56.32
2019-03-12T11:31:22.891Z,56.99
2019-03-12T11:33:52.207Z,57.57
2019-03-12T11:36:21.508Z,57.57
2019-03-12T11:38:50.841Z,57.59
2019-03-12T11:41:20.072Z,57.59
2019-03-12T11:43:49.396Z,57.87
2019-03-12T11:46:18.765Z,57.61
2019-03-12T11:48:48.045Z,58.45
2019-03-12T11:51:17.292Z,58.45
2019-03-12T11:53:46.602Z,57.85
2019-03-12T11:56:15.957Z,58.10
2019-03-12T11:58:45.154Z,58.30
2019-03-12T12:01:14.480Z,57.65
2019-03-12T12:03:43.721Z,57.86
2019-03-12T12:06:13.027Z,57.86
2019-03-12T12:08:42.302Z,56.97
2019-03-12T12:11:11.549Z,57.23
2019-03-12T12:13:40.791Z,56.61
2019-03-12T12:16:10.131Z,56.61
2019-03-12T12:18:39.364Z,57.50
2019-03-12T12:21:08.638Z,57.64
2019-03-12T12:23:37.877Z,57.52
2019-03-12T12:26:07.133Z,57.52
2019-03-12T12:28:36.401Z,57.43
2019-03-12T12:31:05.657Z,57.78
2019-03-12T12:33:34.900Z,56.83
2019-03-12T12:36:04.155Z,57.35
2019-03-12T12:38:33.426Z,57.90
2019-03-12T12:41:02.833Z,57.84
2019-03-12T12:43:32.109Z,57.93
2019-03-12T12:46:01.469Z,57.37
2019-03-12T12:48:30.819Z,57.80
2019-03-12T12:51:03.532Z,57.29
2019-03-12T12:53:29.334Z,57.19
2019-03-12T12:55:58.637Z,57.01
2019-03-12T12:58:27.913Z,57.21
2019-03-12T13:00:57.230Z,57.48
2019-03-12T13:03:26.517Z,57.47
2019-03-12T13:05:55.973Z,57.76
2019-03-12T13:08:25.123Z,57.73
2019-03-12T13:10:54.388Z,57.25
2019-03-12T13:13:23.615Z,57.17
2019-03-12T13:15:52.940Z,56.29
2019-03-12T13:18:22.238Z,56.25
2019-03-12T13:20:51.941Z,56.29
2019-03-12T13:23:21.161Z,56.73
2019-03-12T13:25:50.451Z,56.73
2019-03-12T13:28:19.745Z,56.34
2019-03-12T13:30:49.005Z,56.35
2019-03-12T13:33:18.347Z,56.13
2019-03-12T13:35:49.492Z,57.11
2019-03-12T13:38:16.894Z,57.11
2019-03-12T13:40:46.237Z,57.07
2019-03-12T13:43:15.513Z,56.40
2019-03-12T13:45:44.841Z,56.42
2019-03-12T13:48:14.204Z,56.85
2019-03-12T13:50:43.443Z,56.59
2019-03-12T13:53:12.793Z,56.77
2019-03-12T13:55:42.045Z,57.29
2019-03-12T13:58:11.375Z,57.41
2019-03-12T14:00:40.617Z,57.37
2019-03-12T14:03:09.979Z,56.99
2019-03-12T14:05:39.237Z,57.15
2019-03-12T14:08:08.582Z,56.54
2019-03-12T14:10:37.852Z,56.42
2019-03-12T14:13:07.142Z,56.42
2019-03-12T14:15:36.444Z,56.45
2019-03-12T14:18:05.712Z,56.77
2019-03-12T14:20:43.148Z,56.05
2019-03-12T14:23:14.604Z,56.59
2019-03-12T14:25:43.890Z,56.80
2019-03-12T14:28:13.219Z,57.11
2019-03-12T14:30:42.494Z,56.66
2019-03-12T14:33:11.840Z,56.84
2019-03-12T14:35:50.769Z,56.84
2019-03-12T14:38:10.552Z,56.51
2019-03-12T14:40:39.908Z,56.38
2019-03-12T14:43:09.239Z,56.14
2019-03-12T14:45:39.344Z,55.17
2019-03-12T14:48:28.425Z,55.54
2019-03-12T14:50:57.903Z,54.81
2019-03-12T14:53:27.286Z,54.81
2019-03-12T14:55:56.626Z,53.52
2019-03-12T14:58:25.890Z,53.52
2019-03-12T15:00:55.137Z,53.91
2019-03-12T15:03:24.455Z,54.08
2019-03-12T15:05:54.013Z,54.37
2019-03-12T15:08:23.376Z,54.47
2019-03-12T15:10:52.633Z,53.64
2019-03-12T15:13:21.933Z,53.80
2019-03-12T15:15:51.194Z,53.76
2019-03-12T15:18:20.510Z,53.93
2019-03-12T15:20:49.788Z,53.93
2019-03-12T15:23:19.029Z,53.68
2019-03-12T15:25:48.261Z,53.92
2019-03-12T15:28:17.508Z,53.92
2019-03-12T15:30:46.811Z,53.79
2019-03-12T15:33:16.185Z,53.89
2019-03-12T15:35:45.412Z,53.80
2019-03-12T15:38:14.711Z,54.26
2019-03-12T15:40:44.131Z,54.14
2019-03-12T15:43:13.437Z,54.25
2019-03-12T15:45:42.720Z,53.91
2019-03-12T15:48:12.745Z,53.52
2019-03-12T15:50:42.013Z,53.40
2019-03-12T15:53:11.227Z,53.41
2019-03-12T15:55:40.567Z,53.32
2019-03-12T15:58:09.835Z,53.17
2019-03-12T16:00:39.109Z,52.78
2019-03-12T16:03:08.381Z,51.98
2019-03-12T16:05:37.669Z,51.88
2019-03-12T16:08:06.914Z,52.22
2019-03-12T16:10:36.284Z,52.21
2019-03-12T16:13:07.885Z,51.36
2019-03-12T16:15:37.476Z,51.53
2019-03-12T16:18:04.201Z,51.33
2019-03-12T16:20:33.474Z,51.61
2019-03-12T16:23:02.716Z,51.17
2019-03-12T16:25:31.970Z,51.18
2019-03-12T16:28:01.258Z,50.77
2019-03-12T16:30:30.590Z,50.95
2019-03-12T16:32:59.854Z,51.34
2019-03-12T16:35:29.360Z,51.34
2019-03-12T16:37:58.681Z,51.91
2019-03-12T16:40:28.093Z,51.64
2019-03-12T16:42:57.533Z,51.32
2019-03-12T16:45:26.997Z,50.86
2019-03-12T16:47:56.239Z,51.42
2019-03-12T16:50:25.560Z,51.42
2019-03-12T16:52:55.069Z,51.46
2019-03-12T16:55:24.344Z,51.41
2019-03-12T16:57:53.678Z,51.22
2019-03-12T17:00:22.994Z,51.19
2019-03-12T17:02:52.275Z,50.83
2019-03-12T17:05:21.510Z,50.77
2019-03-12T17:07:50.855Z,50.73
2019-03-12T17:10:20.177Z,51.07
2019-03-12T17:12:49.522Z,50.94
2019-03-12T17:15:18.909Z,50.21
2019-03-12T17:17:48.211Z,50.03
2019-03-12T17:20:17.593Z,50.56
2019-03-12T17:22:46.759Z,50.56
2019-03-12T17:25:16.034Z,50.51
2019-03-12T17:27:45.301Z,50.39
2019-03-12T17:30:20.170Z,50.06
2019-03-12T17:32:49.424Z,50.18
2019-03-12T17:35:21.209Z,50.45
2019-03-12T17:37:50.494Z,50.83
2019-03-12T17:40:20.383Z,50.91
2019-03-12T17:42:49.720Z,50.53
2019-03-12T17:45:19.061Z,51.11
2019-03-12T17:47:48.439Z,51.10
2019-03-12T17:50:17.838Z,51.25
2019-03-12T17:52:47.213Z,51.37
2019-03-12T17:55:16.464Z,50.79
2019-03-12T17:57:45.734Z,50.68
2019-03-12T18:00:16.970Z,51.04
2019-03-12T18:02:46.294Z,50.57
2019-03-12T18:05:15.606Z,50.25
2019-03-12T18:07:44.963Z,50.58
2019-03-12T18:10:14.237Z,50.76
2019-03-12T18:12:43.479Z,50.12
2019-03-12T18:15:14.547Z,50.39
2019-03-12T18:17:43.997Z,50.30
2019-03-12T18:20:14.234Z,50.12
2019-03-12T18:22:44.191Z,49.81
2019-03-12T18:25:16.368Z,49.84
2019-03-12T18:27:45.617Z,48.83
2019-03-12T18:30:16.004Z,48.76
2019-03-12T18:32:45.342Z,47.70
2019-03-12T18:35:14.670Z,47.67
2019-03-12T18:37:44.054Z,47.67
2019-03-12T18:40:15.726Z,47.05
2019-03-12T18:42:45.003Z,46.86
2019-03-12T18:45:16.290Z,45.86
2019-03-12T18:47:45.556Z,45.98
2019-03-12T18:50:14.838Z,45.14
2019-03-12T18:52:44.168Z,45.20
2019-03-12T18:55:25.045Z,45.11
2019-03-12T18:57:54.378Z,44.82
2019-03-12T19:00:23.673Z,44.80
2019-03-12T19:02:53.000Z,43.76
2019-03-12T19:05:22.311Z,43.61
2019-03-12T19:07:51.637Z,44.07
2019-03-12T19:10:20.961Z,44.10
2019-03-12T19:12:50.237Z,43.81
2019-03-12T19:15:19.554Z,43.80
2019-03-12T19:17:48.804Z,43.28
2019-03-12T19:20:18.173Z,42.81
2019-03-12T19:22:47.449Z,43.30
2019-03-12T19:25:16.803Z,42.79
2019-03-12T19:27:58.838Z,42.53
2019-03-12T19:30:15.695Z,42.51
2019-03-12T19:32:51.695Z,42.51
2019-03-12T19:35:21.156Z,42.42
2019-03-12T19:37:50.512Z,41.74
2019-03-12T19:40:20.434Z,42.33
2019-03-12T19:42:49.802Z,41.70
2019-03-12T19:45:19.062Z,41.70
2019-03-12T19:47:48.498Z,41.68
2019-03-12T19:50:17.798Z,41.63
2019-03-12T19:52:47.189Z,42.38
2019-03-12T19:55:18.639Z,41.17
2019-03-12T19:57:47.930Z,41.36
2019-03-12T20:00:17.464Z,41.20
2019-03-12T20:02:47.508Z,41.10
2019-03-12T20:05:16.936Z,41.19
2019-03-12T20:07:46.154Z,40.87
2019-03-12T20:11:15.328Z,41.22
2019-03-12T20:14:21.304Z,41.14
2019-03-12T20:17:44.806Z,41.02
2019-03-12T20:21:01.435Z,40.93
2019-03-12T20:24:17.689Z,41.10
2019-03-12T20:27:45.130Z,41.24
2019-03-12T20:30:53.808Z,41.08
2019-03-12T20:33:55.635Z,40.83
2019-03-12T20:37:18.630Z,40.83
2019-03-12T20:40:24.638Z,40.94
2019-03-12T20:43:35.858Z,41.00
2019-03-12T20:46:56.243Z,40.53
2019-03-12T20:50:11.480Z,39.69
2019-03-12T20:53:17.363Z,38.84
2019-03-12T20:56:44.037Z,38.87
2019-03-12T21:00:03.933Z,38.87
2019-03-12T21:03:17.138Z,38.96
2019-03-12T21:06:28.256Z,39.04
2019-03-12T21:09:35.087Z,39.04
2019-03-12T21:12:44.066Z,39.29
2019-03-12T21:15:28.153Z,39.23
2019-03-12T21:18:34.216Z,40.13
2019-03-12T21:21:47.576Z,39.68
2019-03-12T21:25:02.720Z,39.63
2019-03-12T21:28:11.673Z,39.63
2019-03-12T21:30:41.061Z,39.38
2019-03-12T21:33:15.137Z,39.69
2019-03-12T21:35:39.800Z,39.59
2019-03-12T21:38:09.025Z,39.72
2019-03-12T21:40:38.268Z,39.45
2019-03-12T21:43:07.586Z,39.45
2019-03-12T21:45:36.887Z,40.86
2019-03-12T21:48:06.105Z,40.86
2019-03-12T21:50:35.411Z,41.42
2019-03-12T21:53:04.634Z,42.00
2019-03-12T21:55:33.907Z,42.78
2019-03-12T21:58:03.131Z,43.90
2019-03-12T22:00:32.378Z,43.90
2019-03-12T22:03:01.626Z,43.89
2019-03-12T22:05:30.828Z,43.81
2019-03-12T22:08:00.119Z,44.42
2019-03-12T22:10:29.335Z,44.65
2019-03-12T22:12:58.646Z,44.78
2019-03-12T22:15:29.690Z,45.24
2019-03-12T22:17:57.124Z,45.24
2019-03-12T22:20:26.363Z,45.54
2019-03-12T22:23:02.824Z,46.60
2019-03-12T22:25:32.027Z,47.23
2019-03-12T22:28:01.313Z,48.03
2019-03-12T22:30:30.617Z,49.23
2019-03-12T22:32:59.882Z,50.52
2019-03-12T22:35:29.102Z,51.38
2019-03-12T22:37:58.360Z,52.98
2019-03-12T22:40:27.617Z,53.68
2019-03-12T22:42:56.820Z,53.68
2019-03-12T22:45:26.122Z,54.82
2019-03-12T22:47:55.420Z,54.82
2019-03-12T22:50:24.727Z,55.29
2019-03-12T22:52:54.028Z,55.69
2019-03-12T22:55:23.283Z,56.57
2019-03-12T22:57:52.518Z,56.41
2019-03-12T23:00:21.853Z,56.55
2019-03-12T23:02:51.166Z,56.49
2019-03-12T23:05:20.486Z,56.23
2019-03-12T23:07:49.723Z,56.23
2019-03-12T23:10:19.046Z,55.89
2019-03-12T23:12:48.344Z,55.89
2019-03-12T23:15:17.590Z,55.96
2019-03-12T23:17:46.794Z,56.01
2019-03-12T23:20:16.126Z,55.70
2019-03-12T23:22:45.367Z,55.82
2019-03-12T23:25:14.683Z,56.13
2019-03-12T23:27:43.878Z,56.13
2019-03-12T23:30:13.550Z,55.53
2019-03-12T23:32:42.808Z,55.52
2019-03-12T23:35:12.072Z,55.35
2019-03-12T23:37:41.299Z,54.74
2019-03-12T23:40:10.678Z,54.74
2019-03-12T23:42:39.886Z,54.64
2019-03-12T23:45:09.324Z,57.53
2019-03-12T23:47:38.570Z,57.53
2019-03-12T23:50:08.000Z,61.64
2019-03-12T23:52:37.236Z,66.97
2019-03-12T23:55:06.632Z,71.01
2019-03-12T23:57:35.876Z,72.88
